KHVS/HVS METAR and TAF weather

Enter ICAO airport designator
Station Type Date Time Source
KHVS METAR 2022/05/26 03:55 UTC NOAA

KHVS 260355Z AUTO 08008G15KT 10SM FEW031 OVC070 20/16 A3021 RMK AO2


Station Type Date Time Source
KHVS Decoded METAR 2022/05/26 03:55 UTC NOAA

Station name not available
May 25, 2022 - 11:55 PM EDT / 2022.05.26 0355 UTC
Wind: from the E (080 degrees) at 9 MPH (8 KT) gusting to 17 MPH (15 KT):0
Visibility: 10 mile(s):0
Sky conditions: overcast
Temperature: 68 F (20 C)
Dew Point: 60 F (16 C)
Relative Humidity: 77%
Pressure (altimeter): 30.21 in. Hg (1023 hPa)
ob: KHVS 260355Z AUTO 08008G15KT 10SM FEW031 OVC070 20/16 A3021 RMK AO2
cycle: 4

Station Type Date Time Source
KHVS TAF UTC NOAA

Error!

Example: see airport list